Wildwood, NJ

4:54 AM EDT on July 26, 2017 (GMT -0400)
Cape May County

Weather History for KWWD - July, 2013

Change the Weather History Date:

Thursday, July 25, 2013

  Actual Average Record
Temperature  
Mean Temperature 68 °F -  
Max Temperature 73 °F 79 °F 96 °F (2010)
Min Temperature 62 °F 65 °F 60 °F (1997)
Cooling Degree Days 2    
Growing Degree Days 18 (Base 50)    
Moisture  
Dew Point 59 °F    
Average Humidity 75    
Maximum Humidity 88    
Minimum Humidity 60    
Precipitation  
Precipitation 0.01 in - - ()
Sea Level Pressure  
Sea Level Pressure 29.95 in    
Wind  
Wind Speed 11 mph (NNE)    
Max Wind Speed 20 mph    
Max Gust Speed 29 mph    
Visibility 10 miles    
Events      
Averages and records for this station are not official NWS values.
T = Trace of Precipitation, MM = Missing Value Source: NWS Daily Summary

Daily Weather History Graph

Daily Weather History Graph

Search for Another Location

Airport or City:

Trip Planner

Search our weather history database for the weather conditions in past years. The results will help you decide how hot, cold, wet, or windy it might be!

Date:

Astronomy

Jul. 25, 2013 Rise Set
Actual Time 5:54 AM EDT 8:17 PM EDT
Civil Twilight 5:24 AM EDT 8:47 PM EDT
Nautical Twilight 4:46 AM EDT 9:25 PM EDT
Astronomical Twilight 4:05 AM EDT 10:06 PM EDT
Moon 9:59 PM EDT (7/25) 9:18 AM EDT (7/25)
Length of Visible Light 15h 23m
Length of Day
14h 22m
Waning Gibbous, 88% of the Moon is Illuminated
Jul 25
Waning Gibbous
Jul 29
Last Quarter
Aug 6
New
Aug 14
First Quarter
Aug 20
Full

Hourly Weather History & Observations

Time (EDT) Temp. Dew Point Humidity Pressure Visibility Wind Dir Wind Speed Gust Speed Precip Events Conditions
12:15 AM 73.4 °F 64.4 °F 73% 29.89 in 10.0 mi North 4.6 mph - N/A   Mostly Cloudy
12:35 AM 73.4 °F 62.6 °F 69% 29.89 in 10.0 mi North 13.8 mph 19.6 mph N/A   Partly Cloudy
12:55 AM 71.6 °F 60.8 °F 69% 29.89 in 10.0 mi NNE 9.2 mph - N/A   Scattered Clouds
1:15 AM 71.6 °F 57.2 °F 60% 29.88 in 10.0 mi North 12.7 mph - N/A   Partly Cloudy
1:35 AM 71.6 °F 57.2 °F 60% 29.89 in 10.0 mi NNE 13.8 mph - N/A   Clear
1:55 AM 69.8 °F 55.4 °F 60% 29.88 in 10.0 mi North 8.1 mph - N/A   Partly Cloudy
2:15 AM 69.8 °F 55.4 °F 60% 29.88 in 10.0 mi North 12.7 mph - N/A   Clear
2:35 AM 69.8 °F 55.4 °F 60% 29.89 in 10.0 mi North 13.8 mph - N/A   Clear
2:55 AM 68.0 °F 55.4 °F 64% 29.89 in 10.0 mi North 12.7 mph - N/A   Clear
3:15 AM 66.2 °F 55.4 °F 68% 29.89 in 10.0 mi North 11.5 mph 16.1 mph N/A   Partly Cloudy
3:35 AM 66.2 °F 55.4 °F 68% 29.89 in 10.0 mi North 12.7 mph 16.1 mph N/A   Clear
3:55 AM 66.2 °F 53.6 °F 64% 29.89 in 10.0 mi North 12.7 mph 16.1 mph N/A   Clear
4:15 AM 66.2 °F 53.6 °F 64% 29.89 in 10.0 mi NNE 10.4 mph - N/A   Clear
4:35 AM 66.2 °F 53.6 °F 64% 29.89 in 10.0 mi NNE 12.7 mph - N/A   Clear
4:55 AM 66.2 °F 53.6 °F 64% 29.89 in 10.0 mi North 9.2 mph - N/A   Clear
5:15 AM 66.2 °F 53.6 °F 64% 29.89 in 10.0 mi North 8.1 mph - N/A   Clear
5:35 AM 66.2 °F 53.6 °F 64% 29.90 in 10.0 mi North 9.2 mph - N/A   Clear
5:55 AM 66.2 °F 55.4 °F 68% 29.90 in 10.0 mi North 9.2 mph - N/A   Clear
6:15 AM 66.2 °F 55.4 °F 68% 29.91 in 10.0 mi NNE 8.1 mph - N/A   Scattered Clouds
6:55 AM 64.4 °F 55.4 °F 73% 29.92 in 10.0 mi NNE 9.2 mph - N/A   Overcast
7:15 AM 64.4 °F 57.2 °F 77% 29.92 in 10.0 mi NNE 8.1 mph - N/A   Overcast
7:35 AM 62.6 °F 57.2 °F 82% 29.92 in 10.0 mi NNE 9.2 mph - 0.01 in   Mostly Cloudy
7:55 AM 62.6 °F 57.2 °F 82% 29.93 in 10.0 mi North 6.9 mph - 0.01 in   Overcast
8:15 AM 62.6 °F 57.2 °F 82% 29.93 in 10.0 mi NNE 9.2 mph - N/A   Mostly Cloudy
8:35 AM 64.4 °F 57.2 °F 77% 29.93 in 10.0 mi NNE 8.1 mph - N/A   Mostly Cloudy
8:55 AM 64.4 °F 59.0 °F 83% 29.93 in 10.0 mi NNE 9.2 mph - N/A   Mostly Cloudy
9:15 AM 64.4 °F 60.8 °F 88% 29.94 in 10.0 mi NNE 9.2 mph - N/A   Scattered Clouds
9:35 AM 66.2 °F 60.8 °F 83% 29.96 in 10.0 mi North 5.8 mph - N/A   Mostly Cloudy
9:55 AM 66.2 °F 60.8 °F 83% 29.95 in 10.0 mi North 10.4 mph - N/A   Mostly Cloudy
10:15 AM 66.2 °F 60.8 °F 83% 29.95 in 10.0 mi NNE 11.5 mph - N/A   Mostly Cloudy
10:35 AM 66.2 °F 60.8 °F 83% 29.95 in 10.0 mi NNE 11.5 mph - N/A   Overcast
10:55 AM 68.0 °F 62.6 °F 83% 29.95 in 10.0 mi NE 9.2 mph 17.3 mph N/A   Overcast
11:15 AM 68.0 °F 62.6 °F 83% 29.94 in 10.0 mi NE 16.1 mph 21.9 mph N/A   Scattered Clouds
11:35 AM 69.8 °F 62.6 °F 78% 29.95 in 10.0 mi NE 19.6 mph 28.8 mph N/A   Scattered Clouds
11:55 AM 69.8 °F 62.6 °F 78% 29.97 in 10.0 mi NNE 17.3 mph 24.2 mph N/A   Mostly Cloudy
12:15 PM 69.8 °F 62.6 °F 78% 29.98 in 10.0 mi NNE 15.0 mph 23.0 mph N/A   Overcast
12:35 PM 69.8 °F 62.6 °F 78% 29.98 in 10.0 mi NE 13.8 mph 19.6 mph N/A   Overcast
12:55 PM 69.8 °F 62.6 °F 78% 29.97 in 10.0 mi NNE 16.1 mph 23.0 mph N/A   Mostly Cloudy
1:15 PM 69.8 °F 62.6 °F 78% 29.96 in 10.0 mi NNE 15.0 mph 20.7 mph N/A   Overcast
1:35 PM 71.6 °F 62.6 °F 73% 29.97 in 10.0 mi NE 17.3 mph 25.3 mph N/A   Overcast
1:55 PM 71.6 °F 62.6 °F 73% 29.97 in 10.0 mi NNE 11.5 mph 20.7 mph N/A   Overcast
2:15 PM 71.6 °F 62.6 °F 73% 29.97 in 10.0 mi NNE 15.0 mph 21.9 mph N/A   Overcast
2:35 PM 71.6 °F 62.6 °F 73% 29.97 in 10.0 mi NNE 12.7 mph - N/A   Overcast
2:55 PM 71.6 °F 62.6 °F 73% 29.97 in 10.0 mi NNE 13.8 mph 19.6 mph N/A   Overcast
3:15 PM 71.6 °F 62.6 °F 73% 29.97 in 10.0 mi NNE 13.8 mph 17.3 mph N/A   Overcast
3:35 PM 71.6 °F 62.6 °F 73% 29.97 in 10.0 mi NNE 13.8 mph - N/A   Overcast
3:55 PM 71.6 °F 62.6 °F 73% 29.97 in 10.0 mi NNE 13.8 mph - N/A   Overcast
4:15 PM 71.6 °F 62.6 °F 73% 29.98 in 10.0 mi NNE 13.8 mph - N/A   Overcast
4:35 PM 69.8 °F 60.8 °F 73% 29.98 in 10.0 mi NE 13.8 mph 17.3 mph N/A   Overcast
4:55 PM 69.8 °F 60.8 °F 73% 29.98 in 10.0 mi North 12.7 mph 19.6 mph N/A   Overcast
5:15 PM 69.8 °F 62.6 °F 78% 29.99 in 10.0 mi North 11.5 mph - N/A   Overcast
5:35 PM 69.8 °F 60.8 °F 73% 29.99 in 10.0 mi NNE 13.8 mph - N/A   Overcast
5:55 PM 69.8 °F 60.8 °F 73% 29.99 in 10.0 mi NNE 15.0 mph - N/A   Overcast
6:15 PM 68.0 °F 60.8 °F 78% 29.99 in 10.0 mi North 11.5 mph 18.4 mph N/A   Overcast
6:35 PM 68.0 °F 60.8 °F 78% 29.99 in 10.0 mi North 11.5 mph - N/A   Overcast
6:55 PM 68.0 °F 60.8 °F 78% 30.00 in 10.0 mi North 11.5 mph 16.1 mph N/A   Overcast
7:15 PM 66.2 °F 60.8 °F 83% 30.00 in 10.0 mi NNE 10.4 mph - N/A   Overcast
7:35 PM 66.2 °F 59.0 °F 78% 30.00 in 10.0 mi NNE 12.7 mph 17.3 mph N/A   Overcast
7:55 PM 66.2 °F 59.0 °F 78% 30.00 in 10.0 mi North 10.4 mph - N/A   Overcast
8:15 PM 66.2 °F 59.0 °F 78% 30.00 in 10.0 mi North 10.4 mph - N/A   Overcast
8:35 PM 66.2 °F 59.0 °F 78% 30.00 in 10.0 mi North 8.1 mph - N/A   Overcast
8:55 PM 64.4 °F 59.0 °F 83% 30.01 in 10.0 mi North 11.5 mph - N/A   Overcast
9:15 PM 64.4 °F 59.0 °F 83% 30.02 in 10.0 mi North 8.1 mph - N/A   Overcast
9:35 PM 64.4 °F 59.0 °F 83% 30.03 in 10.0 mi North 6.9 mph - N/A   Overcast
9:55 PM 64.4 °F 59.0 °F 83% 30.03 in 10.0 mi North 6.9 mph - N/A   Overcast
10:15 PM 64.4 °F 59.0 °F 83% 30.04 in 10.0 mi North 9.2 mph - N/A   Overcast
10:35 PM 64.4 °F 57.2 °F 77% 30.03 in 10.0 mi North 6.9 mph - N/A   Overcast
10:55 PM 64.4 °F 57.2 °F 77% 30.03 in 10.0 mi North 10.4 mph - N/A   Overcast
11:15 PM 64.4 °F 57.2 °F 77% 30.02 in 10.0 mi North 11.5 mph - N/A   Overcast
11:35 PM 64.4 °F 57.2 °F 77% 30.02 in 10.0 mi NNE 12.7 mph - N/A   Overcast
11:55 PM 64.4 °F 57.2 °F 77% 30.01 in 10.0 mi North 11.5 mph 17.3 mph N/A   Overcast